<?xml version="1.0" encoding="UTF-8" standalone="no" ?>
<gpx xmlns="http://www.topografix.com/GPX/1/1" xmlns:xsi="http://www.w3.org/2001/XMLSchema-instance" xsi:schemaLocation="http://www.topografix.com/GPX/1/1 http://www.topografix.com/GPX/1/1/gpx.xsd" version="1.1" creator="VisuGPX - https://www.visugpx.com">
  <metadata>
    <name>VTT-27km_Autour Monistrol</name>
    <desc><![CDATA[Tour VTT 600 d+ 27 km autour de Monistrom]]></desc>
  </metadata>
  <trk>
    <name><![CDATA[12049244-252_29-Les terrasses de la Loire]]></name>
    <extensions>
      <line xmlns="http://www.topografix.com/GPX/gpx_style/0/2">
        <color>0000FF</color>
        <width>4</width>
      </line>
    </extensions>
    <trkseg>
      <trkpt lat="45.29489" lon="4.17071">
        <ele>596.9</ele>
        <time>2022-08-29T13:19:40Z</time>
      </trkpt>
      <trkpt lat="45.29522" lon="4.17121">
        <ele>596</ele>
        <time>2022-08-29T13:19:51Z</time>
      </trkpt>
      <trkpt lat="45.29535" lon="4.17119">
        <ele>596.4</ele>
      </trkpt>
      <trkpt lat="45.29568" lon="4.17166">
        <ele>594.8</ele>
        <time>2022-08-29T13:20:07Z</time>
      </trkpt>
      <trkpt lat="45.29602" lon="4.17172">
        <ele>589.8</ele>
        <time>2022-08-29T13:20:12Z</time>
      </trkpt>
      <trkpt lat="45.29633" lon="4.17144">
        <ele>591</ele>
        <time>2022-08-29T13:20:21Z</time>
      </trkpt>
      <trkpt lat="45.29668" lon="4.16999">
        <ele>577.4</ele>
        <time>2022-08-29T13:20:46Z</time>
      </trkpt>
      <trkpt lat="45.29701" lon="4.16966">
        <ele>588</ele>
        <time>2022-08-29T13:20:56Z</time>
      </trkpt>
      <trkpt lat="45.297" lon="4.16926">
        <ele>588</ele>
        <time>2022-08-29T13:21:02Z</time>
      </trkpt>
      <trkpt lat="45.29688" lon="4.16838">
        <ele>581.5</ele>
        <time>2022-08-29T13:21:17Z</time>
      </trkpt>
      <trkpt lat="45.29705" lon="4.16772">
        <ele>583.4</ele>
        <time>2022-08-29T13:21:29Z</time>
      </trkpt>
      <trkpt lat="45.29728" lon="4.16657">
        <ele>586.2</ele>
      </trkpt>
      <trkpt lat="45.29754" lon="4.16575">
        <ele>586</ele>
        <time>2022-08-29T13:22:02Z</time>
      </trkpt>
      <trkpt lat="45.29791" lon="4.16481">
        <ele>587.6</ele>
        <time>2022-08-29T13:22:19Z</time>
      </trkpt>
      <trkpt lat="45.29759" lon="4.16438">
        <ele>584.4</ele>
      </trkpt>
      <trkpt lat="45.29771" lon="4.16408">
        <ele>583.5</ele>
        <time>2022-08-29T13:22:34Z</time>
      </trkpt>
      <trkpt lat="45.29768" lon="4.16393">
        <ele>581.3</ele>
        <time>2022-08-29T13:22:37Z</time>
      </trkpt>
      <trkpt lat="45.29708" lon="4.16399">
        <ele>576.3</ele>
        <time>2022-08-29T13:22:48Z</time>
      </trkpt>
      <trkpt lat="45.29697" lon="4.16331">
        <ele>566</ele>
        <time>2022-08-29T13:23:02Z</time>
      </trkpt>
      <trkpt lat="45.29675" lon="4.16307">
        <ele>566.3</ele>
        <time>2022-08-29T13:23:28Z</time>
      </trkpt>
      <trkpt lat="45.29635" lon="4.16285">
        <ele>556.6</ele>
        <time>2022-08-29T13:23:49Z</time>
      </trkpt>
      <trkpt lat="45.29669" lon="4.16236">
        <ele>544.7</ele>
      </trkpt>
      <trkpt lat="45.29729" lon="4.16179">
        <ele>541</ele>
        <time>2022-08-29T13:24:03Z</time>
      </trkpt>
      <trkpt lat="45.29685" lon="4.16186">
        <ele>525.4</ele>
      </trkpt>
      <trkpt lat="45.29695" lon="4.16169">
        <ele>520.5</ele>
      </trkpt>
      <trkpt lat="45.29706" lon="4.16146">
        <ele>515.4</ele>
      </trkpt>
      <trkpt lat="45.29694" lon="4.16122">
        <ele>511.8</ele>
        <time>2022-08-29T13:24:09Z</time>
      </trkpt>
      <trkpt lat="45.29727" lon="4.16086">
        <ele>512</ele>
      </trkpt>
      <trkpt lat="45.29734" lon="4.16057">
        <ele>514.4</ele>
      </trkpt>
      <trkpt lat="45.29731" lon="4.16009">
        <ele>522.6</ele>
        <time>2022-08-29T13:24:22Z</time>
      </trkpt>
      <trkpt lat="45.29719" lon="4.15927">
        <ele>535.7</ele>
        <time>2022-08-29T13:24:46Z</time>
      </trkpt>
      <trkpt lat="45.29676" lon="4.15867">
        <ele>543</ele>
        <time>2022-08-29T13:24:58Z</time>
      </trkpt>
      <trkpt lat="45.29635" lon="4.15816">
        <ele>548.8</ele>
      </trkpt>
      <trkpt lat="45.29602" lon="4.15794">
        <ele>552.9</ele>
      </trkpt>
      <trkpt lat="45.2955" lon="4.15744">
        <ele>554.1</ele>
        <time>2022-08-29T13:25:39Z</time>
      </trkpt>
      <trkpt lat="45.2959" lon="4.15502">
        <ele>543.8</ele>
        <time>2022-08-29T13:26:17Z</time>
      </trkpt>
      <trkpt lat="45.29572" lon="4.15441">
        <ele>541</ele>
        <time>2022-08-29T13:26:29Z</time>
      </trkpt>
      <trkpt lat="45.29609" lon="4.15395">
        <ele>537</ele>
        <time>2022-08-29T13:26:40Z</time>
      </trkpt>
      <trkpt lat="45.29583" lon="4.1532">
        <ele>530</ele>
        <time>2022-08-29T13:26:54Z</time>
      </trkpt>
      <trkpt lat="45.29529" lon="4.15341">
        <ele>531</ele>
        <time>2022-08-29T13:27:07Z</time>
      </trkpt>
      <trkpt lat="45.29493" lon="4.15333">
        <ele>529</ele>
        <time>2022-08-29T13:27:16Z</time>
      </trkpt>
      <trkpt lat="45.29482" lon="4.15292">
        <ele>526</ele>
        <time>2022-08-29T13:27:23Z</time>
      </trkpt>
      <trkpt lat="45.29497" lon="4.15241">
        <ele>520.2</ele>
        <time>2022-08-29T13:27:32Z</time>
      </trkpt>
      <trkpt lat="45.29525" lon="4.15092">
        <ele>521.3</ele>
        <time>2022-08-29T13:27:58Z</time>
      </trkpt>
      <trkpt lat="45.2954" lon="4.15032">
        <ele>519.2</ele>
        <time>2022-08-29T13:28:10Z</time>
      </trkpt>
      <trkpt lat="45.29562" lon="4.14989">
        <ele>521.2</ele>
      </trkpt>
      <trkpt lat="45.29589" lon="4.14971">
        <ele>520.3</ele>
        <time>2022-08-29T13:28:22Z</time>
      </trkpt>
      <trkpt lat="45.29708" lon="4.14908">
        <ele>511</ele>
        <time>2022-08-29T13:29:03Z</time>
      </trkpt>
      <trkpt lat="45.29876" lon="4.14838">
        <ele>502.5</ele>
        <time>2022-08-29T13:29:34Z</time>
      </trkpt>
      <trkpt lat="45.29999" lon="4.1475">
        <ele>496.1</ele>
        <time>2022-08-29T13:29:58Z</time>
      </trkpt>
      <trkpt lat="45.30006" lon="4.1473">
        <ele>495.6</ele>
      </trkpt>
      <trkpt lat="45.30113" lon="4.14652">
        <ele>484</ele>
        <time>2022-08-29T13:30:36Z</time>
      </trkpt>
      <trkpt lat="45.30189" lon="4.14584">
        <ele>479.5</ele>
      </trkpt>
      <trkpt lat="45.30192" lon="4.14589">
        <ele>478.5</ele>
      </trkpt>
      <trkpt lat="45.30211" lon="4.14577">
        <ele>476.6</ele>
        <time>2022-08-29T13:31:06Z</time>
      </trkpt>
      <trkpt lat="45.30241" lon="4.14582">
        <ele>472.4</ele>
      </trkpt>
      <trkpt lat="45.30166" lon="4.14674">
        <ele>465</ele>
      </trkpt>
      <trkpt lat="45.30143" lon="4.14717">
        <ele>463.8</ele>
      </trkpt>
      <trkpt lat="45.30135" lon="4.14747">
        <ele>465.1</ele>
      </trkpt>
      <trkpt lat="45.30132" lon="4.14768">
        <ele>466.9</ele>
      </trkpt>
      <trkpt lat="45.30143" lon="4.1479">
        <ele>463</ele>
      </trkpt>
      <trkpt lat="45.30169" lon="4.14809">
        <ele>463.4</ele>
      </trkpt>
      <trkpt lat="45.30173" lon="4.14788">
        <ele>464.7</ele>
      </trkpt>
      <trkpt lat="45.30185" lon="4.14755">
        <ele>465.8</ele>
      </trkpt>
      <trkpt lat="45.30204" lon="4.14731">
        <ele>463.9</ele>
      </trkpt>
      <trkpt lat="45.30231" lon="4.14745">
        <ele>466.6</ele>
      </trkpt>
      <trkpt lat="45.30248" lon="4.14777">
        <ele>469</ele>
      </trkpt>
      <trkpt lat="45.30237" lon="4.14821">
        <ele>473.7</ele>
      </trkpt>
      <trkpt lat="45.30253" lon="4.14843">
        <ele>476.6</ele>
        <time>2022-08-29T13:31:12Z</time>
      </trkpt>
      <trkpt lat="45.30274" lon="4.14854">
        <ele>477.7</ele>
      </trkpt>
      <trkpt lat="45.30294" lon="4.14893">
        <ele>483</ele>
      </trkpt>
      <trkpt lat="45.30272" lon="4.1491">
        <ele>486.2</ele>
      </trkpt>
      <trkpt lat="45.30236" lon="4.14985">
        <ele>494.6</ele>
        <time>2022-08-29T13:31:19Z</time>
      </trkpt>
      <trkpt lat="45.30325" lon="4.15044">
        <ele>500.9</ele>
        <time>2022-08-29T13:31:39Z</time>
      </trkpt>
      <trkpt lat="45.3054" lon="4.15088">
        <ele>495.8</ele>
        <time>2022-08-29T13:31:50Z</time>
      </trkpt>
      <trkpt lat="45.30585" lon="4.15123">
        <ele>498.9</ele>
      </trkpt>
      <trkpt lat="45.30614" lon="4.15171">
        <ele>502.2</ele>
        <time>2022-08-29T13:32:03Z</time>
      </trkpt>
      <trkpt lat="45.30681" lon="4.15135">
        <ele>499.9</ele>
      </trkpt>
      <trkpt lat="45.30762" lon="4.15039">
        <ele>494.4</ele>
        <time>2022-08-29T13:40:22Z</time>
      </trkpt>
      <trkpt lat="45.308" lon="4.15003">
        <ele>492.8</ele>
      </trkpt>
      <trkpt lat="45.30798" lon="4.15019">
        <ele>493</ele>
        <time>2022-08-29T13:40:26Z</time>
      </trkpt>
      <trkpt lat="45.30722" lon="4.15333">
        <ele>509</ele>
      </trkpt>
      <trkpt lat="45.30682" lon="4.15627">
        <ele>519</ele>
        <time>2022-08-29T13:42:09Z</time>
      </trkpt>
      <trkpt lat="45.30652" lon="4.15744">
        <ele>526.8</ele>
        <time>2022-08-29T13:42:27Z</time>
      </trkpt>
      <trkpt lat="45.30598" lon="4.15845">
        <ele>531</ele>
        <time>2022-08-29T13:42:51Z</time>
      </trkpt>
      <trkpt lat="45.30559" lon="4.15919">
        <ele>537</ele>
      </trkpt>
      <trkpt lat="45.30528" lon="4.15992">
        <ele>541</ele>
        <time>2022-08-29T13:43:15Z</time>
      </trkpt>
      <trkpt lat="45.30493" lon="4.16028">
        <ele>544.5</ele>
        <time>2022-08-29T13:43:29Z</time>
      </trkpt>
      <trkpt lat="45.30463" lon="4.16054">
        <ele>547.3</ele>
        <time>2022-08-29T13:43:35Z</time>
      </trkpt>
      <trkpt lat="45.30484" lon="4.16116">
        <ele>544.2</ele>
      </trkpt>
      <trkpt lat="45.30488" lon="4.16184">
        <ele>543.3</ele>
        <time>2022-08-29T13:44:02Z</time>
      </trkpt>
      <trkpt lat="45.30451" lon="4.16262">
        <ele>547.9</ele>
      </trkpt>
      <trkpt lat="45.30361" lon="4.16407">
        <ele>558</ele>
        <time>2022-08-29T13:44:44Z</time>
      </trkpt>
      <trkpt lat="45.30374" lon="4.16516">
        <ele>558</ele>
        <time>2022-08-29T13:45:02Z</time>
      </trkpt>
      <trkpt lat="45.30352" lon="4.16573">
        <ele>562.1</ele>
      </trkpt>
      <trkpt lat="45.30352" lon="4.16595">
        <ele>564</ele>
        <time>2022-08-29T13:45:17Z</time>
      </trkpt>
      <trkpt lat="45.30357" lon="4.16628">
        <ele>565.2</ele>
        <time>2022-08-29T13:45:25Z</time>
      </trkpt>
      <trkpt lat="45.30391" lon="4.16628">
        <ele>559.4</ele>
        <time>2022-08-29T13:45:37Z</time>
      </trkpt>
      <trkpt lat="45.30411" lon="4.16642">
        <ele>556.4</ele>
      </trkpt>
      <trkpt lat="45.30418" lon="4.16668">
        <ele>555</ele>
        <time>2022-08-29T13:45:44Z</time>
      </trkpt>
      <trkpt lat="45.3042" lon="4.16696">
        <ele>556</ele>
        <time>2022-08-29T13:45:49Z</time>
      </trkpt>
      <trkpt lat="45.30453" lon="4.16698">
        <ele>547.8</ele>
        <time>2022-08-29T13:45:57Z</time>
      </trkpt>
      <trkpt lat="45.30513" lon="4.16672">
        <ele>548.8</ele>
      </trkpt>
      <trkpt lat="45.30554" lon="4.16672">
        <ele>554.4</ele>
      </trkpt>
      <trkpt lat="45.30587" lon="4.16661">
        <ele>559</ele>
      </trkpt>
      <trkpt lat="45.3062" lon="4.16628">
        <ele>563.4</ele>
      </trkpt>
      <trkpt lat="45.30654" lon="4.16609">
        <ele>567</ele>
      </trkpt>
      <trkpt lat="45.30675" lon="4.16635">
        <ele>567</ele>
        <time>2022-08-29T13:46:49Z</time>
      </trkpt>
      <trkpt lat="45.30815" lon="4.16702">
        <ele>577.9</ele>
        <time>2022-08-29T13:47:24Z</time>
      </trkpt>
      <trkpt lat="45.30946" lon="4.16756">
        <ele>585.5</ele>
        <time>2022-08-29T13:47:49Z</time>
      </trkpt>
      <trkpt lat="45.3101" lon="4.16786">
        <ele>586.6</ele>
      </trkpt>
      <trkpt lat="45.30993" lon="4.16887">
        <ele>593.2</ele>
        <time>2022-08-29T13:48:18Z</time>
      </trkpt>
      <trkpt lat="45.31099" lon="4.17014">
        <ele>597.6</ele>
        <time>2022-08-29T13:48:48Z</time>
      </trkpt>
      <trkpt lat="45.31176" lon="4.17063">
        <ele>602.9</ele>
      </trkpt>
      <trkpt lat="45.31265" lon="4.17091">
        <ele>606.3</ele>
        <time>2022-08-29T13:49:12Z</time>
      </trkpt>
      <trkpt lat="45.3136" lon="4.17124">
        <ele>606.5</ele>
      </trkpt>
      <trkpt lat="45.31433" lon="4.1713">
        <ele>604</ele>
        <time>2022-08-29T13:49:58Z</time>
      </trkpt>
      <trkpt lat="45.31486" lon="4.1717">
        <ele>596.2</ele>
        <time>2022-08-29T13:50:22Z</time>
      </trkpt>
      <trkpt lat="45.31559" lon="4.17199">
        <ele>594</ele>
        <time>2022-08-29T13:50:41Z</time>
      </trkpt>
      <trkpt lat="45.31684" lon="4.17197">
        <ele>577</ele>
        <time>2022-08-29T13:51:07Z</time>
      </trkpt>
      <trkpt lat="45.31756" lon="4.17239">
        <ele>572</ele>
        <time>2022-08-29T13:51:29Z</time>
      </trkpt>
      <trkpt lat="45.31838" lon="4.17247">
        <ele>569</ele>
        <time>2022-08-29T13:51:49Z</time>
      </trkpt>
      <trkpt lat="45.31929" lon="4.17253">
        <ele>561.2</ele>
        <time>2022-08-29T13:52:10Z</time>
      </trkpt>
      <trkpt lat="45.31993" lon="4.17221">
        <ele>562.5</ele>
      </trkpt>
      <trkpt lat="45.32022" lon="4.17224">
        <ele>560.9</ele>
        <time>2022-08-29T13:52:32Z</time>
      </trkpt>
      <trkpt lat="45.32058" lon="4.1724">
        <ele>559.7</ele>
      </trkpt>
      <trkpt lat="45.32118" lon="4.17238">
        <ele>560.1</ele>
        <time>2022-08-29T13:52:55Z</time>
      </trkpt>
      <trkpt lat="45.32162" lon="4.17175">
        <ele>564.7</ele>
      </trkpt>
      <trkpt lat="45.32213" lon="4.17119">
        <ele>566.8</ele>
      </trkpt>
      <trkpt lat="45.32244" lon="4.17065">
        <ele>566.2</ele>
        <time>2022-08-29T13:53:26Z</time>
      </trkpt>
      <trkpt lat="45.32292" lon="4.16956">
        <ele>560.4</ele>
        <time>2022-08-29T13:53:40Z</time>
      </trkpt>
      <trkpt lat="45.32282" lon="4.16938">
        <ele>560.2</ele>
        <time>2022-08-29T13:54:31Z</time>
      </trkpt>
      <trkpt lat="45.32237" lon="4.16918">
        <ele>562</ele>
      </trkpt>
      <trkpt lat="45.32148" lon="4.16808">
        <ele>564.9</ele>
        <time>2022-08-29T13:54:45Z</time>
      </trkpt>
      <trkpt lat="45.32202" lon="4.16706">
        <ele>560.3</ele>
      </trkpt>
      <trkpt lat="45.3223" lon="4.16689">
        <ele>557.4</ele>
        <time>2022-08-29T13:55:11Z</time>
      </trkpt>
      <trkpt lat="45.32251" lon="4.16643">
        <ele>554</ele>
        <time>2022-08-29T13:55:31Z</time>
      </trkpt>
      <trkpt lat="45.32328" lon="4.16595">
        <ele>544.6</ele>
        <time>2022-08-29T13:55:43Z</time>
      </trkpt>
      <trkpt lat="45.32383" lon="4.16549">
        <ele>536.5</ele>
      </trkpt>
      <trkpt lat="45.32466" lon="4.16463">
        <ele>528.6</ele>
        <time>2022-08-29T13:56:22Z</time>
      </trkpt>
      <trkpt lat="45.32496" lon="4.16302">
        <ele>518</ele>
        <time>2022-08-29T13:56:46Z</time>
      </trkpt>
      <trkpt lat="45.32534" lon="4.16223">
        <ele>509.9</ele>
      </trkpt>
      <trkpt lat="45.32575" lon="4.16158">
        <ele>502</ele>
        <time>2022-08-29T13:57:16Z</time>
      </trkpt>
      <trkpt lat="45.32591" lon="4.16123">
        <ele>499.5</ele>
      </trkpt>
      <trkpt lat="45.32625" lon="4.16096">
        <ele>493</ele>
        <time>2022-08-29T13:57:32Z</time>
      </trkpt>
      <trkpt lat="45.32602" lon="4.15981">
        <ele>482</ele>
        <time>2022-08-29T13:57:51Z</time>
      </trkpt>
      <trkpt lat="45.32634" lon="4.15923">
        <ele>474.4</ele>
        <time>2022-08-29T13:58:04Z</time>
      </trkpt>
      <trkpt lat="45.3264" lon="4.15877">
        <ele>465</ele>
        <time>2022-08-29T13:58:12Z</time>
      </trkpt>
      <trkpt lat="45.32734" lon="4.1586">
        <ele>460.7</ele>
        <time>2022-08-29T13:58:39Z</time>
      </trkpt>
      <trkpt lat="45.32801" lon="4.15884">
        <ele>455.4</ele>
        <time>2022-08-29T13:58:57Z</time>
      </trkpt>
      <trkpt lat="45.32821" lon="4.15831">
        <ele>452.3</ele>
        <time>2022-08-29T13:59:05Z</time>
      </trkpt>
      <trkpt lat="45.32847" lon="4.15804">
        <ele>448.9</ele>
      </trkpt>
      <trkpt lat="45.32872" lon="4.15801">
        <ele>446.7</ele>
        <time>2022-08-29T13:59:14Z</time>
      </trkpt>
      <trkpt lat="45.3289" lon="4.1584">
        <ele>444.1</ele>
        <time>2022-08-29T13:59:22Z</time>
      </trkpt>
      <trkpt lat="45.32905" lon="4.15895">
        <ele>447</ele>
        <time>2022-08-29T13:59:32Z</time>
      </trkpt>
      <trkpt lat="45.32957" lon="4.15923">
        <ele>446.8</ele>
      </trkpt>
      <trkpt lat="45.32954" lon="4.15962">
        <ele>448.9</ele>
        <time>2022-08-29T14:00:03Z</time>
      </trkpt>
      <trkpt lat="45.32956" lon="4.16">
        <ele>451.8</ele>
        <time>2022-08-29T14:00:16Z</time>
      </trkpt>
      <trkpt lat="45.3298" lon="4.16084">
        <ele>458</ele>
        <time>2022-08-29T14:00:34Z</time>
      </trkpt>
      <trkpt lat="45.32979" lon="4.1616">
        <ele>463.1</ele>
        <time>2022-08-29T14:00:42Z</time>
      </trkpt>
      <trkpt lat="45.33043" lon="4.16276">
        <ele>472</ele>
        <time>2022-08-29T14:01:05Z</time>
      </trkpt>
      <trkpt lat="45.33041" lon="4.16381">
        <ele>475</ele>
        <time>2022-08-29T14:01:23Z</time>
      </trkpt>
      <trkpt lat="45.33038" lon="4.16428">
        <ele>483.8</ele>
      </trkpt>
      <trkpt lat="45.32996" lon="4.16571">
        <ele>500</ele>
      </trkpt>
      <trkpt lat="45.33003" lon="4.16632">
        <ele>507.2</ele>
        <time>2022-08-29T14:02:25Z</time>
      </trkpt>
      <trkpt lat="45.33003" lon="4.1667">
        <ele>505</ele>
        <time>2022-08-29T14:02:31Z</time>
      </trkpt>
      <trkpt lat="45.33012" lon="4.16806">
        <ele>526</ele>
        <time>2022-08-29T14:03:19Z</time>
      </trkpt>
      <trkpt lat="45.33018" lon="4.1691">
        <ele>532.2</ele>
      </trkpt>
      <trkpt lat="45.33014" lon="4.17012">
        <ele>534.2</ele>
        <time>2022-08-29T14:03:50Z</time>
      </trkpt>
      <trkpt lat="45.33011" lon="4.17079">
        <ele>535</ele>
        <time>2022-08-29T14:04:06Z</time>
      </trkpt>
      <trkpt lat="45.32956" lon="4.17261">
        <ele>535.6</ele>
        <time>2022-08-29T14:04:36Z</time>
      </trkpt>
      <trkpt lat="45.32911" lon="4.17468">
        <ele>536.1</ele>
      </trkpt>
      <trkpt lat="45.32877" lon="4.17597">
        <ele>538.5</ele>
        <time>2022-08-29T14:05:31Z</time>
      </trkpt>
      <trkpt lat="45.32853" lon="4.17632">
        <ele>539.7</ele>
        <time>2022-08-29T14:05:42Z</time>
      </trkpt>
      <trkpt lat="45.32815" lon="4.17735">
        <ele>548</ele>
        <time>2022-08-29T14:05:59Z</time>
      </trkpt>
      <trkpt lat="45.32779" lon="4.17782">
        <ele>549</ele>
        <time>2022-08-29T14:06:11Z</time>
      </trkpt>
      <trkpt lat="45.32739" lon="4.17848">
        <ele>551</ele>
        <time>2022-08-29T14:06:25Z</time>
      </trkpt>
      <trkpt lat="45.32715" lon="4.17899">
        <ele>548.4</ele>
      </trkpt>
      <trkpt lat="45.32696" lon="4.17961">
        <ele>546.7</ele>
        <time>2022-08-29T14:06:50Z</time>
      </trkpt>
      <trkpt lat="45.32659" lon="4.18024">
        <ele>548.9</ele>
        <time>2022-08-29T14:07:06Z</time>
      </trkpt>
      <trkpt lat="45.32649" lon="4.18075">
        <ele>552.6</ele>
      </trkpt>
      <trkpt lat="45.32632" lon="4.18122">
        <ele>555.7</ele>
        <time>2022-08-29T14:07:21Z</time>
      </trkpt>
      <trkpt lat="45.32626" lon="4.18148">
        <ele>557.4</ele>
      </trkpt>
      <trkpt lat="45.32614" lon="4.18174">
        <ele>558.9</ele>
        <time>2022-08-29T14:07:28Z</time>
      </trkpt>
      <trkpt lat="45.32528" lon="4.182">
        <ele>560.2</ele>
        <time>2022-08-29T14:07:49Z</time>
      </trkpt>
      <trkpt lat="45.32515" lon="4.18236">
        <ele>561.5</ele>
        <time>2022-08-29T14:07:58Z</time>
      </trkpt>
      <trkpt lat="45.32509" lon="4.18284">
        <ele>562.9</ele>
      </trkpt>
      <trkpt lat="45.32506" lon="4.1834">
        <ele>570</ele>
        <time>2022-08-29T14:08:14Z</time>
      </trkpt>
      <trkpt lat="45.32507" lon="4.18391">
        <ele>577.7</ele>
        <time>2022-08-29T14:08:20Z</time>
      </trkpt>
      <trkpt lat="45.32526" lon="4.18405">
        <ele>579.5</ele>
      </trkpt>
      <trkpt lat="45.32534" lon="4.18424">
        <ele>576</ele>
        <time>2022-08-29T14:08:30Z</time>
      </trkpt>
      <trkpt lat="45.32552" lon="4.18464">
        <ele>578.7</ele>
        <time>2022-08-29T14:08:39Z</time>
      </trkpt>
      <trkpt lat="45.32575" lon="4.18507">
        <ele>581.3</ele>
        <time>2022-08-29T14:08:48Z</time>
      </trkpt>
      <trkpt lat="45.32612" lon="4.18574">
        <ele>583</ele>
        <time>2022-08-29T14:09:01Z</time>
      </trkpt>
      <trkpt lat="45.32641" lon="4.18605">
        <ele>586.1</ele>
        <time>2022-08-29T14:09:14Z</time>
      </trkpt>
      <trkpt lat="45.32703" lon="4.18615">
        <ele>593.2</ele>
      </trkpt>
      <trkpt lat="45.32722" lon="4.18635">
        <ele>597</ele>
        <time>2022-08-29T14:09:28Z</time>
      </trkpt>
      <trkpt lat="45.32742" lon="4.18703">
        <ele>604.8</ele>
        <time>2022-08-29T14:09:39Z</time>
      </trkpt>
      <trkpt lat="45.32727" lon="4.18796">
        <ele>614.6</ele>
        <time>2022-08-29T14:09:50Z</time>
      </trkpt>
      <trkpt lat="45.32734" lon="4.18855">
        <ele>619.2</ele>
        <time>2022-08-29T14:10:07Z</time>
      </trkpt>
      <trkpt lat="45.32727" lon="4.18902">
        <ele>620</ele>
      </trkpt>
      <trkpt lat="45.32723" lon="4.18963">
        <ele>621</ele>
        <time>2022-08-29T14:10:25Z</time>
      </trkpt>
      <trkpt lat="45.32727" lon="4.19065">
        <ele>617.4</ele>
        <time>2022-08-29T14:10:42Z</time>
      </trkpt>
      <trkpt lat="45.32727" lon="4.19136">
        <ele>620</ele>
        <time>2022-08-29T14:10:53Z</time>
      </trkpt>
      <trkpt lat="45.32706" lon="4.19234">
        <ele>618</ele>
        <time>2022-08-29T14:11:10Z</time>
      </trkpt>
      <trkpt lat="45.32701" lon="4.19463">
        <ele>626</ele>
        <time>2022-08-29T14:11:48Z</time>
      </trkpt>
      <trkpt lat="45.3269" lon="4.19611">
        <ele>631.5</ele>
      </trkpt>
      <trkpt lat="45.32694" lon="4.19642">
        <ele>633.1</ele>
      </trkpt>
      <trkpt lat="45.32684" lon="4.19633">
        <ele>631.6</ele>
        <time>2022-08-29T14:12:16Z</time>
      </trkpt>
      <trkpt lat="45.32658" lon="4.1968">
        <ele>631.5</ele>
      </trkpt>
      <trkpt lat="45.32642" lon="4.19745">
        <ele>630.5</ele>
        <time>2022-08-29T14:12:32Z</time>
      </trkpt>
      <trkpt lat="45.32651" lon="4.19795">
        <ele>632.2</ele>
      </trkpt>
      <trkpt lat="45.32638" lon="4.19884">
        <ele>635.2</ele>
        <time>2022-08-29T14:13:06Z</time>
      </trkpt>
      <trkpt lat="45.3262" lon="4.19947">
        <ele>641.7</ele>
        <time>2022-08-29T14:13:19Z</time>
      </trkpt>
      <trkpt lat="45.32626" lon="4.19982">
        <ele>646.1</ele>
      </trkpt>
      <trkpt lat="45.32622" lon="4.20078">
        <ele>658.7</ele>
      </trkpt>
      <trkpt lat="45.32632" lon="4.20155">
        <ele>665.8</ele>
      </trkpt>
      <trkpt lat="45.3263" lon="4.20201">
        <ele>670.3</ele>
        <time>2022-08-29T14:13:48Z</time>
      </trkpt>
      <trkpt lat="45.32617" lon="4.20206">
        <ele>670.3</ele>
      </trkpt>
      <trkpt lat="45.32601" lon="4.20255">
        <ele>675</ele>
        <time>2022-08-29T14:14:03Z</time>
      </trkpt>
      <trkpt lat="45.32605" lon="4.20403">
        <ele>687.9</ele>
        <time>2022-08-29T14:14:11Z</time>
      </trkpt>
      <trkpt lat="45.32593" lon="4.20523">
        <ele>691.7</ele>
        <time>2022-08-29T14:14:28Z</time>
      </trkpt>
      <trkpt lat="45.32584" lon="4.20793">
        <ele>695</ele>
      </trkpt>
      <trkpt lat="45.32548" lon="4.20999">
        <ele>705.4</ele>
        <time>2022-08-29T14:14:44Z</time>
      </trkpt>
      <trkpt lat="45.32525" lon="4.21184">
        <ele>722</ele>
      </trkpt>
      <trkpt lat="45.32494" lon="4.21222">
        <ele>722.4</ele>
      </trkpt>
      <trkpt lat="45.32475" lon="4.2128">
        <ele>729.1</ele>
      </trkpt>
      <trkpt lat="45.32489" lon="4.21319">
        <ele>731.7</ele>
        <time>2022-08-29T14:48:15Z</time>
      </trkpt>
      <trkpt lat="45.3243" lon="4.213">
        <ele>730.3</ele>
        <time>2022-08-29T14:48:28Z</time>
      </trkpt>
      <trkpt lat="45.32353" lon="4.21336">
        <ele>733.3</ele>
        <time>2022-08-29T14:48:49Z</time>
      </trkpt>
      <trkpt lat="45.32306" lon="4.21314">
        <ele>732.9</ele>
        <time>2022-08-29T14:49:00Z</time>
      </trkpt>
      <trkpt lat="45.32316" lon="4.21264">
        <ele>726.5</ele>
        <time>2022-08-29T14:49:10Z</time>
      </trkpt>
      <trkpt lat="45.32279" lon="4.21261">
        <ele>723.5</ele>
      </trkpt>
      <trkpt lat="45.3225" lon="4.21241">
        <ele>724.7</ele>
        <time>2022-08-29T14:49:29Z</time>
      </trkpt>
      <trkpt lat="45.32113" lon="4.21178">
        <ele>715.3</ele>
      </trkpt>
      <trkpt lat="45.32055" lon="4.21194">
        <ele>710.8</ele>
        <time>2022-08-29T14:50:01Z</time>
      </trkpt>
      <trkpt lat="45.31917" lon="4.21277">
        <ele>701.9</ele>
        <time>2022-08-29T14:50:40Z</time>
      </trkpt>
      <trkpt lat="45.31831" lon="4.21264">
        <ele>703</ele>
        <time>2022-08-29T14:51:06Z</time>
      </trkpt>
      <trkpt lat="45.31702" lon="4.2135">
        <ele>694.2</ele>
        <time>2022-08-29T14:51:43Z</time>
      </trkpt>
      <trkpt lat="45.31627" lon="4.21398">
        <ele>690.1</ele>
        <time>2022-08-29T14:52:11Z</time>
      </trkpt>
      <trkpt lat="45.31509" lon="4.21428">
        <ele>671.8</ele>
        <time>2022-08-29T14:52:24Z</time>
      </trkpt>
      <trkpt lat="45.31493" lon="4.21452">
        <ele>674.9</ele>
      </trkpt>
      <trkpt lat="45.31441" lon="4.21491">
        <ele>688.8</ele>
      </trkpt>
      <trkpt lat="45.31407" lon="4.21501">
        <ele>691.8</ele>
        <time>2022-08-29T14:52:54Z</time>
      </trkpt>
      <trkpt lat="45.31305" lon="4.21505">
        <ele>706</ele>
        <time>2022-08-29T14:53:17Z</time>
      </trkpt>
      <trkpt lat="45.31149" lon="4.21733">
        <ele>719.3</ele>
        <time>2022-08-29T14:54:21Z</time>
      </trkpt>
      <trkpt lat="45.3105" lon="4.21857">
        <ele>719</ele>
      </trkpt>
      <trkpt lat="45.31019" lon="4.21927">
        <ele>718.9</ele>
      </trkpt>
      <trkpt lat="45.3095" lon="4.22003">
        <ele>722</ele>
        <time>2022-08-29T14:55:14Z</time>
      </trkpt>
      <trkpt lat="45.30955" lon="4.22051">
        <ele>725.2</ele>
        <time>2022-08-29T14:55:29Z</time>
      </trkpt>
      <trkpt lat="45.3094" lon="4.22053">
        <ele>725</ele>
        <time>2022-08-29T14:55:41Z</time>
      </trkpt>
      <trkpt lat="45.30888" lon="4.22098">
        <ele>724.1</ele>
        <time>2022-08-29T14:55:52Z</time>
      </trkpt>
      <trkpt lat="45.30975" lon="4.22265">
        <ele>740.1</ele>
        <time>2022-08-29T14:56:32Z</time>
      </trkpt>
      <trkpt lat="45.30991" lon="4.22341">
        <ele>744.7</ele>
      </trkpt>
      <trkpt lat="45.30987" lon="4.22387">
        <ele>746</ele>
        <time>2022-08-29T14:56:47Z</time>
      </trkpt>
      <trkpt lat="45.30992" lon="4.22436">
        <ele>749</ele>
        <time>2022-08-29T14:56:55Z</time>
      </trkpt>
      <trkpt lat="45.30986" lon="4.22484">
        <ele>753</ele>
        <time>2022-08-29T14:57:03Z</time>
      </trkpt>
      <trkpt lat="45.30952" lon="4.22532">
        <ele>758</ele>
        <time>2022-08-29T14:57:18Z</time>
      </trkpt>
      <trkpt lat="45.30952" lon="4.22573">
        <ele>759.8</ele>
        <time>2022-08-29T14:57:19Z</time>
      </trkpt>
      <trkpt lat="45.30983" lon="4.22602">
        <ele>761</ele>
        <time>2022-08-29T14:57:30Z</time>
      </trkpt>
      <trkpt lat="45.3099" lon="4.22626">
        <ele>761.9</ele>
        <time>2022-08-29T14:57:36Z</time>
      </trkpt>
      <trkpt lat="45.31047" lon="4.22633">
        <ele>762.1</ele>
      </trkpt>
      <trkpt lat="45.31084" lon="4.2265">
        <ele>763</ele>
        <time>2022-08-29T14:57:56Z</time>
      </trkpt>
      <trkpt lat="45.31105" lon="4.22685">
        <ele>764.3</ele>
      </trkpt>
      <trkpt lat="45.31114" lon="4.22726">
        <ele>761</ele>
        <time>2022-08-29T14:58:10Z</time>
      </trkpt>
      <trkpt lat="45.31127" lon="4.2279">
        <ele>759</ele>
        <time>2022-08-29T14:58:21Z</time>
      </trkpt>
      <trkpt lat="45.31127" lon="4.22876">
        <ele>758</ele>
        <time>2022-08-29T14:58:35Z</time>
      </trkpt>
      <trkpt lat="45.31125" lon="4.22896">
        <ele>758.6</ele>
      </trkpt>
      <trkpt lat="45.31114" lon="4.22889">
        <ele>758.7</ele>
      </trkpt>
      <trkpt lat="45.31084" lon="4.22946">
        <ele>761</ele>
        <time>2022-08-29T14:58:50Z</time>
      </trkpt>
      <trkpt lat="45.31047" lon="4.22967">
        <ele>763.5</ele>
      </trkpt>
      <trkpt lat="45.31022" lon="4.23005">
        <ele>766.6</ele>
        <time>2022-08-29T14:59:10Z</time>
      </trkpt>
      <trkpt lat="45.30993" lon="4.2292">
        <ele>770.2</ele>
        <time>2022-08-29T14:59:28Z</time>
      </trkpt>
      <trkpt lat="45.30951" lon="4.22884">
        <ele>767</ele>
        <time>2022-08-29T14:59:41Z</time>
      </trkpt>
      <trkpt lat="45.30955" lon="4.22888">
        <ele>768.9</ele>
      </trkpt>
      <trkpt lat="45.30936" lon="4.22917">
        <ele>771.7</ele>
      </trkpt>
      <trkpt lat="45.30916" lon="4.22931">
        <ele>770</ele>
        <time>2022-08-29T14:59:52Z</time>
      </trkpt>
      <trkpt lat="45.30878" lon="4.22985">
        <ele>774.4</ele>
        <time>2022-08-29T15:00:08Z</time>
      </trkpt>
      <trkpt lat="45.30826" lon="4.23021">
        <ele>776.6</ele>
        <time>2022-08-29T15:00:19Z</time>
      </trkpt>
      <trkpt lat="45.30798" lon="4.23038">
        <ele>777.1</ele>
      </trkpt>
      <trkpt lat="45.30782" lon="4.23013">
        <ele>774.4</ele>
        <time>2022-08-29T15:00:28Z</time>
      </trkpt>
      <trkpt lat="45.30764" lon="4.23001">
        <ele>772.5</ele>
      </trkpt>
      <trkpt lat="45.30739" lon="4.23019">
        <ele>773.7</ele>
      </trkpt>
      <trkpt lat="45.30708" lon="4.23063">
        <ele>780</ele>
        <time>2022-08-29T15:00:48Z</time>
      </trkpt>
      <trkpt lat="45.30683" lon="4.23078">
        <ele>778</ele>
      </trkpt>
      <trkpt lat="45.30657" lon="4.23079">
        <ele>776.4</ele>
      </trkpt>
      <trkpt lat="45.30612" lon="4.23072">
        <ele>772.9</ele>
        <time>2022-08-29T15:01:08Z</time>
      </trkpt>
      <trkpt lat="45.30541" lon="4.2299">
        <ele>779</ele>
        <time>2022-08-29T15:01:32Z</time>
      </trkpt>
      <trkpt lat="45.30457" lon="4.22959">
        <ele>790.6</ele>
      </trkpt>
      <trkpt lat="45.30386" lon="4.22962">
        <ele>791.5</ele>
        <time>2022-08-29T15:02:09Z</time>
      </trkpt>
      <trkpt lat="45.30348" lon="4.23194">
        <ele>792.5</ele>
        <time>2022-08-29T15:03:03Z</time>
      </trkpt>
      <trkpt lat="45.30348" lon="4.23297">
        <ele>795.5</ele>
      </trkpt>
      <trkpt lat="45.3036" lon="4.23409">
        <ele>801.5</ele>
      </trkpt>
      <trkpt lat="45.30354" lon="4.23484">
        <ele>805.3</ele>
        <time>2022-08-29T15:03:26Z</time>
      </trkpt>
      <trkpt lat="45.30324" lon="4.23574">
        <ele>807.7</ele>
        <time>2022-08-29T15:03:54Z</time>
      </trkpt>
      <trkpt lat="45.30244" lon="4.23586">
        <ele>810.1</ele>
        <time>2022-08-29T15:04:19Z</time>
      </trkpt>
      <trkpt lat="45.30199" lon="4.23596">
        <ele>810.5</ele>
      </trkpt>
      <trkpt lat="45.30165" lon="4.23614">
        <ele>812</ele>
      </trkpt>
      <trkpt lat="45.30122" lon="4.2358">
        <ele>811.4</ele>
      </trkpt>
      <trkpt lat="45.30105" lon="4.23606">
        <ele>813.2</ele>
        <time>2022-08-29T15:04:47Z</time>
      </trkpt>
      <trkpt lat="45.30013" lon="4.23601">
        <ele>816.6</ele>
      </trkpt>
      <trkpt lat="45.29964" lon="4.23592">
        <ele>818</ele>
        <time>2022-08-29T15:05:19Z</time>
      </trkpt>
      <trkpt lat="45.29866" lon="4.23508">
        <ele>826.1</ele>
        <time>2022-08-29T15:05:44Z</time>
      </trkpt>
      <trkpt lat="45.29871" lon="4.23465">
        <ele>829.8</ele>
      </trkpt>
      <trkpt lat="45.29853" lon="4.23416">
        <ele>829.7</ele>
        <time>2022-08-29T15:06:01Z</time>
      </trkpt>
      <trkpt lat="45.29829" lon="4.23364">
        <ele>825.2</ele>
      </trkpt>
      <trkpt lat="45.29808" lon="4.23323">
        <ele>821.4</ele>
        <time>2022-08-29T15:06:21Z</time>
      </trkpt>
      <trkpt lat="45.29757" lon="4.23253">
        <ele>816.9</ele>
      </trkpt>
      <trkpt lat="45.29725" lon="4.2319">
        <ele>815.6</ele>
        <time>2022-08-29T15:06:50Z</time>
      </trkpt>
      <trkpt lat="45.29586" lon="4.23078">
        <ele>822.9</ele>
        <time>2022-08-29T15:07:36Z</time>
      </trkpt>
      <trkpt lat="45.29492" lon="4.23027">
        <ele>823.8</ele>
      </trkpt>
      <trkpt lat="45.29402" lon="4.22954">
        <ele>816</ele>
        <time>2022-08-29T15:08:15Z</time>
      </trkpt>
      <trkpt lat="45.29367" lon="4.22924">
        <ele>808.4</ele>
        <time>2022-08-29T15:08:26Z</time>
      </trkpt>
      <trkpt lat="45.29327" lon="4.22922">
        <ele>805.1</ele>
      </trkpt>
      <trkpt lat="45.29287" lon="4.22937">
        <ele>803.9</ele>
      </trkpt>
      <trkpt lat="45.29211" lon="4.22932">
        <ele>810</ele>
        <time>2022-08-29T15:09:03Z</time>
      </trkpt>
      <trkpt lat="45.29202" lon="4.22931">
        <ele>811</ele>
        <time>2022-08-29T15:09:05Z</time>
      </trkpt>
      <trkpt lat="45.2924" lon="4.22688">
        <ele>796.1</ele>
        <time>2022-08-29T15:09:49Z</time>
      </trkpt>
      <trkpt lat="45.29269" lon="4.22592">
        <ele>790.2</ele>
      </trkpt>
      <trkpt lat="45.29266" lon="4.22484">
        <ele>784.3</ele>
        <time>2022-08-29T15:10:17Z</time>
      </trkpt>
      <trkpt lat="45.29279" lon="4.22409">
        <ele>781.6</ele>
      </trkpt>
      <trkpt lat="45.29311" lon="4.22304">
        <ele>779.4</ele>
        <time>2022-08-29T15:10:45Z</time>
      </trkpt>
      <trkpt lat="45.29322" lon="4.22196">
        <ele>777</ele>
        <time>2022-08-29T15:11:09Z</time>
      </trkpt>
      <trkpt lat="45.2932" lon="4.22116">
        <ele>772.1</ele>
      </trkpt>
      <trkpt lat="45.29325" lon="4.22002">
        <ele>770</ele>
      </trkpt>
      <trkpt lat="45.29329" lon="4.21904">
        <ele>768.5</ele>
      </trkpt>
      <trkpt lat="45.29345" lon="4.21795">
        <ele>766</ele>
        <time>2022-08-29T15:12:15Z</time>
      </trkpt>
      <trkpt lat="45.29328" lon="4.21722">
        <ele>767.8</ele>
      </trkpt>
      <trkpt lat="45.29302" lon="4.21637">
        <ele>768.9</ele>
        <time>2022-08-29T15:12:44Z</time>
      </trkpt>
      <trkpt lat="45.29391" lon="4.21319">
        <ele>767</ele>
        <time>2022-08-29T15:13:41Z</time>
      </trkpt>
      <trkpt lat="45.29456" lon="4.21197">
        <ele>772.1</ele>
      </trkpt>
      <trkpt lat="45.29488" lon="4.21137">
        <ele>774</ele>
      </trkpt>
      <trkpt lat="45.29536" lon="4.21085">
        <ele>771.8</ele>
      </trkpt>
      <trkpt lat="45.29583" lon="4.20981">
        <ele>765.4</ele>
        <time>2022-08-29T15:14:52Z</time>
      </trkpt>
      <trkpt lat="45.29478" lon="4.20979">
        <ele>772.8</ele>
      </trkpt>
      <trkpt lat="45.29341" lon="4.20965">
        <ele>777.3</ele>
        <time>2022-08-29T15:15:49Z</time>
      </trkpt>
      <trkpt lat="45.29286" lon="4.20963">
        <ele>778.8</ele>
      </trkpt>
      <trkpt lat="45.29177" lon="4.20936">
        <ele>770</ele>
        <time>2022-08-29T15:16:26Z</time>
      </trkpt>
      <trkpt lat="45.29122" lon="4.20959">
        <ele>770.7</ele>
      </trkpt>
      <trkpt lat="45.29059" lon="4.20998">
        <ele>763</ele>
        <time>2022-08-29T15:16:56Z</time>
      </trkpt>
      <trkpt lat="45.29024" lon="4.2099">
        <ele>759.7</ele>
        <time>2022-08-29T15:17:03Z</time>
      </trkpt>
      <trkpt lat="45.29023" lon="4.20937">
        <ele>755</ele>
      </trkpt>
      <trkpt lat="45.28977" lon="4.21003">
        <ele>751.8</ele>
        <time>2022-08-29T15:17:15Z</time>
      </trkpt>
      <trkpt lat="45.28968" lon="4.20966">
        <ele>749.5</ele>
      </trkpt>
      <trkpt lat="45.28998" lon="4.20903">
        <ele>747.7</ele>
      </trkpt>
      <trkpt lat="45.29021" lon="4.20857">
        <ele>747</ele>
        <time>2022-08-29T15:17:25Z</time>
      </trkpt>
      <trkpt lat="45.29042" lon="4.20815">
        <ele>745.5</ele>
      </trkpt>
      <trkpt lat="45.29042" lon="4.20728">
        <ele>746.9</ele>
        <time>2022-08-29T15:17:48Z</time>
      </trkpt>
      <trkpt lat="45.29037" lon="4.20599">
        <ele>739.6</ele>
        <time>2022-08-29T15:18:02Z</time>
      </trkpt>
      <trkpt lat="45.29024" lon="4.20538">
        <ele>734</ele>
        <time>2022-08-29T15:18:19Z</time>
      </trkpt>
      <trkpt lat="45.29064" lon="4.20435">
        <ele>731</ele>
        <time>2022-08-29T15:18:38Z</time>
      </trkpt>
      <trkpt lat="45.29088" lon="4.20393">
        <ele>728.8</ele>
      </trkpt>
      <trkpt lat="45.291" lon="4.20334">
        <ele>726</ele>
        <time>2022-08-29T15:18:57Z</time>
      </trkpt>
      <trkpt lat="45.29106" lon="4.20113">
        <ele>717.3</ele>
      </trkpt>
      <trkpt lat="45.29114" lon="4.20053">
        <ele>713.7</ele>
        <time>2022-08-29T15:19:35Z</time>
      </trkpt>
      <trkpt lat="45.29103" lon="4.19963">
        <ele>707.2</ele>
        <time>2022-08-29T15:19:59Z</time>
      </trkpt>
      <trkpt lat="45.29093" lon="4.19916">
        <ele>703.9</ele>
      </trkpt>
      <trkpt lat="45.29097" lon="4.19842">
        <ele>699</ele>
      </trkpt>
      <trkpt lat="45.29089" lon="4.19735">
        <ele>690.4</ele>
      </trkpt>
      <trkpt lat="45.29101" lon="4.19647">
        <ele>686.5</ele>
        <time>2022-08-29T15:20:41Z</time>
      </trkpt>
      <trkpt lat="45.29106" lon="4.19513">
        <ele>679.2</ele>
        <time>2022-08-29T15:21:10Z</time>
      </trkpt>
      <trkpt lat="45.29115" lon="4.19458">
        <ele>677.3</ele>
      </trkpt>
      <trkpt lat="45.29138" lon="4.1937">
        <ele>673.2</ele>
      </trkpt>
      <trkpt lat="45.291" lon="4.1931">
        <ele>668</ele>
      </trkpt>
      <trkpt lat="45.28999" lon="4.19171">
        <ele>659</ele>
        <time>2022-08-29T15:21:39Z</time>
      </trkpt>
      <trkpt lat="45.29021" lon="4.19139">
        <ele>659</ele>
        <time>2022-08-29T15:22:25Z</time>
      </trkpt>
      <trkpt lat="45.2908" lon="4.1906">
        <ele>651</ele>
      </trkpt>
      <trkpt lat="45.29086" lon="4.1902">
        <ele>650</ele>
        <time>2022-08-29T15:22:50Z</time>
      </trkpt>
      <trkpt lat="45.29049" lon="4.18933">
        <ele>651</ele>
        <time>2022-08-29T15:23:07Z</time>
      </trkpt>
      <trkpt lat="45.29026" lon="4.18909">
        <ele>650.8</ele>
        <time>2022-08-29T15:23:17Z</time>
      </trkpt>
      <trkpt lat="45.29038" lon="4.18814">
        <ele>651.7</ele>
        <time>2022-08-29T15:23:37Z</time>
      </trkpt>
      <trkpt lat="45.29068" lon="4.18698">
        <ele>648</ele>
        <time>2022-08-29T15:23:48Z</time>
      </trkpt>
      <trkpt lat="45.29038" lon="4.18617">
        <ele>646.5</ele>
      </trkpt>
      <trkpt lat="45.29036" lon="4.18588">
        <ele>645</ele>
        <time>2022-08-29T15:24:07Z</time>
      </trkpt>
      <trkpt lat="45.29039" lon="4.18433">
        <ele>642.6</ele>
        <time>2022-08-29T15:24:30Z</time>
      </trkpt>
      <trkpt lat="45.29057" lon="4.18292">
        <ele>635</ele>
        <time>2022-08-29T15:25:01Z</time>
      </trkpt>
      <trkpt lat="45.29045" lon="4.18234">
        <ele>631.5</ele>
      </trkpt>
      <trkpt lat="45.29039" lon="4.18184">
        <ele>636</ele>
        <time>2022-08-29T15:25:16Z</time>
      </trkpt>
      <trkpt lat="45.29039" lon="4.18088">
        <ele>628.6</ele>
        <time>2022-08-29T15:25:31Z</time>
      </trkpt>
      <trkpt lat="45.29032" lon="4.18042">
        <ele>625.9</ele>
      </trkpt>
      <trkpt lat="45.29002" lon="4.17943">
        <ele>619</ele>
        <time>2022-08-29T15:25:57Z</time>
      </trkpt>
      <trkpt lat="45.28992" lon="4.17903">
        <ele>617.1</ele>
      </trkpt>
      <trkpt lat="45.2898" lon="4.17873">
        <ele>614.9</ele>
        <time>2022-08-29T15:26:10Z</time>
      </trkpt>
      <trkpt lat="45.28998" lon="4.17825">
        <ele>608.1</ele>
      </trkpt>
      <trkpt lat="45.29049" lon="4.1779">
        <ele>600.7</ele>
        <time>2022-08-29T15:26:31Z</time>
      </trkpt>
      <trkpt lat="45.29082" lon="4.17758">
        <ele>601</ele>
        <time>2022-08-29T15:26:37Z</time>
      </trkpt>
      <trkpt lat="45.29104" lon="4.17709">
        <ele>597.1</ele>
        <time>2022-08-29T15:26:46Z</time>
      </trkpt>
      <trkpt lat="45.29116" lon="4.17628">
        <ele>600.1</ele>
      </trkpt>
      <trkpt lat="45.2912" lon="4.176">
        <ele>601.8</ele>
        <time>2022-08-29T15:26:58Z</time>
      </trkpt>
      <trkpt lat="45.29172" lon="4.17488">
        <ele>601.3</ele>
        <time>2022-08-29T15:27:26Z</time>
      </trkpt>
      <trkpt lat="45.29225" lon="4.17393">
        <ele>600.8</ele>
        <time>2022-08-29T15:27:48Z</time>
      </trkpt>
      <trkpt lat="45.29266" lon="4.17337">
        <ele>601</ele>
        <time>2022-08-29T15:28:01Z</time>
      </trkpt>
      <trkpt lat="45.29343" lon="4.17227">
        <ele>598.6</ele>
        <time>2022-08-29T15:28:27Z</time>
      </trkpt>
      <trkpt lat="45.29452" lon="4.17104">
        <ele>597</ele>
        <time>2022-08-29T15:28:58Z</time>
      </trkpt>
      <trkpt lat="45.29479" lon="4.17076">
        <ele>597.4</ele>
        <time>2022-08-29T15:29:02Z</time>
      </trkpt>
    </trkseg>
  </trk>
</gpx>